Latest Weather Observations for Dwellingup

IDW60801

Issued at 4:32 am WST Monday 22 December 2014 (issued every 30 minutes, with the page automatically refreshed every 10 minutes)

About weather observations | Map of weather stations | Latest weather observations for WA | Other Formats
Station Details ID: 009538 Name: DWELLINGUP Lat: -32.71 Lon: 116.06 Height: 267.0 m
Data from the previous 72 hours. | See also: Recent months at Dwellingup
Date/Time
WST
Temp
°C
App
Temp
°C
Dew
Point
Rel
Hum
%
Delta-T
°C
Wind Press
QNH
hPa
Press
MSL
hPa
Rain
since 9 am
mm
Dir
 
Spd
km/h
Gust
km/h
Spd
kts
Gust
kts
22/04:30am 12.5 9.2 9.5 82 1.5 SE 17 24 9 13 1017.5 1016.6 0.0
22/04:00am 12.8 9.9 9.6 81 1.7 SE 15 24 8 13 1017.2 1016.3 0.0
22/03:30am 13.2 10.0 9.8 80 1.8 SE 17 30 9 16 1017.1 1016.2 0.0
22/03:00am 13.7 10.1 9.7 77 2.1 SE 19 30 10 16 1017.2 1016.3 0.0
22/02:30am 14.2 11.0 9.8 75 2.3 SE 17 28 9 15 1017.1 1016.2 0.0
22/02:00am 14.9 11.7 10.1 73 2.5 ESE 17 22 9 12 1017.2 1016.3 0.0
22/01:30am 15.5 12.0 10.3 71 2.8 ESE 19 30 10 16 1017.4 1016.5 0.0
22/01:00am 16.0 12.5 10.1 68 3.1 ESE 19 30 10 16 1017.6 1016.7 0.0
22/12:30am 16.6 13.5 10.2 66 3.4 ESE 17 26 9 14 1017.8 1016.9 0.0
22/12:00am 17.0 13.5 10.1 64 3.7 ESE 19 30 10 16 1018.0 1017.1 0.0
 
Date/Time
WST
Temp
°C
App
Temp
°C
Dew
Point
Rel
Hum
%
Delta-T
°C
Wind Press
QNH
hPa
Press
MSL
hPa
Rain
since 9 am
mm
Dir
 
Spd
km/h
Gust
km/h
Spd
kts
Gust
kts
21/11:30pm 17.4 13.8 9.8 61 4.1 ESE 19 32 10 17 1018.1 1017.2 0.0
21/11:00pm 17.6 14.2 9.0 57 4.5 ESE 17 28 9 15 1018.0 1017.1 0.0
21/10:30pm 17.9 14.3 8.2 53 5.0 SE 17 26 9 14 1018.1 1017.2 0.0
21/10:00pm 16.6 13.5 8.8 60 4.1 SSE 15 19 8 10 1017.9 1017.0 0.0
21/09:30pm 16.9 13.9 9.1 60 4.1 SSE 15 17 8 9 1017.7 1016.8 0.0
21/09:00pm 17.7 15.0 8.8 56 4.7 SSE 13 17 7 9 1017.4 1016.5 0.0
21/08:30pm 19.0 16.3 8.9 52 5.3 SSE 13 17 7 9 1017.1 1016.2 0.0
21/08:00pm 20.8 18.0 8.4 45 6.6 SSE 13 17 7 9 1016.8 1015.9 0.0
21/07:30pm 22.4 19.4 7.8 39 7.7 SSE 13 17 7 9 1016.7 1015.8 0.0
21/07:00pm 23.9 20.5 7.5 35 8.7 SSE 15 24 8 13 1016.3 1015.4 0.0
21/06:30pm 25.4 22.5 8.0 33 9.4 SSE 13 24 7 13 1016.1 1015.2 0.0
21/06:00pm 26.5 23.5 7.5 30 10.2 SSE 13 22 7 12 1016.0 1015.1 0.0
21/05:30pm 26.4 23.4 7.9 31 10.0 SSE 13 24 7 13 1015.9 1015.0 0.0
21/05:00pm 26.4 23.1 7.9 31 10.0 SSE 15 26 8 14 1015.8 1014.9 0.0
21/04:30pm 27.1 24.6 8.0 30 10.4 SE 11 20 6 11 1015.8 1014.9 0.0
21/04:00pm 25.9 23.1 8.4 33 9.5 SE 13 26 7 14 1016.1 1015.2 0.0
21/03:30pm 26.5 23.0 8.9 33 9.7 SSE 17 30 9 16 1016.4 1015.5 0.0
21/03:00pm 26.6 23.3 9.5 34 9.5 SSE 17 30 9 16 1016.5 1015.6 0.0
21/02:30pm 26.1 23.1 9.4 35 9.3 SE 15 28 8 15 1016.9 1016.0 0.0
21/02:00pm 24.9 21.9 9.2 37 8.6 SE 15 30 8 16 1017.2 1016.3 0.0
21/01:30pm 24.6 21.5 9.0 37 8.5 SSE 15 24 8 13 1017.5 1016.6 0.0
21/01:00pm 25.5 22.3 10.1 38 8.6 SE 17 33 9 18 1017.6 1016.7 0.0
21/12:30pm 24.1 20.3 9.7 40 8.0 SE 20 32 11 17 1017.8 1016.9 0.0
21/12:00pm 23.2 19.6 9.9 43 7.3 SE 19 33 10 18 1018.1 1017.2 0.0
21/11:30am 22.6 18.5 10.1 45 6.9 SE 22 35 12 19 1018.3 1017.4 0.0
21/11:00am 22.0 18.2 9.9 46 6.6 ESE 20 39 11 21 1018.6 1017.7 0.0
21/10:30am 21.0 16.9 10.2 50 5.9 SE 22 41 12 22 1018.7 1017.8 0.0
21/10:00am 21.3 18.1 11.1 52 5.7 SE 19 33 10 18 1018.6 1017.7 0.0
21/09:30am 20.2 16.1 10.0 52 5.6 SE 22 35 12 19 1018.6 1017.7 0.0
21/09:00am 19.2 15.0 9.9 55 5.0 ESE 22 43 12 23 1018.7 1017.8 0.0
21/08:30am 18.8 14.4 10.4 58 4.6 SE 24 37 13 20 1018.6 1017.7 0.0
21/08:00am 17.5 12.2 9.9 61 4.1 SE 28 46 15 25 1018.5 1017.6 0.0
21/07:30am 16.7 11.4 9.9 64 3.6 SE 28 48 15 26 1018.5 1017.6 0.0
21/07:00am 16.1 10.8 9.8 66 3.3 SE 28 46 15 25 1018.4 1017.5 0.0
21/06:30am 15.9 10.6 9.8 67 3.2 SE 28 50 15 27 1018.2 1017.3 0.0
21/06:07am 15.5 10.2 9.8 69 3.0 SE 28 52 15 28 1017.9 1017.0 0.0
21/06:00am 15.4 11.6 9.7 69 3.0 SE 20 39 11 21 1017.8 1016.9 0.0
21/05:30am 14.9 10.7 9.7 71 2.7 SSE 22 35 12 19 1017.6 1016.7 0.0
21/05:00am 14.6 10.7 9.6 72 2.6 SSE 20 33 11 18 1017.4 1016.5 0.0
21/04:30am 14.4 10.7 9.6 73 2.5 SE 19 32 10 17 1016.9 1016.0 0.0
21/04:00am 14.2 10.3 9.6 74 2.4 SE 20 33 11 18 1016.7 1015.8 0.0
21/03:30am 13.8 10.1 9.5 75 2.2 SE 19 32 10 17 1016.4 1015.5 0.0
21/03:00am 14.1 10.4 9.3 73 2.5 SE 19 28 10 15 1016.4 1015.5 0.0
21/02:30am 14.3 10.4 9.3 72 2.6 SE 20 35 11 19 1016.5 1015.6 0.0
21/02:00am 14.5 10.7 8.9 69 2.9 SE 19 28 10 15 1016.5 1015.6 0.0
21/01:30am 15.1 11.7 9.0 67 3.2 SE 17 26 9 14 1016.6 1015.7 0.0
21/01:00am 15.3 11.3 9.0 66 3.3 SE 20 37 11 20 1016.6 1015.7 0.0
21/12:30am 15.4 11.0 9.1 66 3.3 SE 22 39 12 21 1016.6 1015.7 0.0
21/12:00am 15.8 11.4 9.0 64 3.5 SE 22 33 12 18 1016.6 1015.7 0.0
 
Date/Time
WST
Temp
°C
App
Temp
°C
Dew
Point
Rel
Hum
%
Delta-T
°C
Wind Press
QNH
hPa
Press
MSL
hPa
Rain
since 9 am
mm
Dir
 
Spd
km/h
Gust
km/h
Spd
kts
Gust
kts
20/11:30pm 16.1 11.8 9.3 64 3.6 SE 22 35 12 19 1016.6 1015.7 0.0
20/11:00pm 16.6 12.6 9.1 61 3.9 SSE 20 35 11 19 1016.5 1015.6 0.0
20/10:30pm 17.1 11.9 9.0 59 4.2 SSE 26 41 14 22 1016.3 1015.4 0.0
20/10:10pm 17.5 11.9 8.6 56 4.6 SSE 28 48 15 26 1016.1 1015.2 0.0
20/10:00pm 17.7 12.4 8.6 55 4.7 SSE 26 39 14 21 1016.0 1015.1 0.0
20/09:30pm 18.4 13.0 8.1 51 5.4 SSE 26 48 14 26 1015.8 1014.9 0.0
20/09:00pm 19.1 14.2 6.9 45 6.2 SSE 22 35 12 19 1015.2 1014.3 0.0
20/08:30pm 19.8 15.4 6.5 42 6.8 SSE 19 33 10 18 1014.7 1013.8 0.0
20/08:00pm 20.4 16.0 7.4 43 6.7 SSE 20 32 11 17 1014.1 1013.2 0.0
20/07:30pm 21.4 17.0 6.5 38 7.7 SSE 19 28 10 15 1013.5 1012.6 0.0
20/07:00pm 22.2 17.1 6.0 35 8.3 SSE 22 37 12 20 1012.9 1012.0 0.0
20/06:30pm 23.7 17.6 6.5 33 9.0 SSE 28 44 15 24 1012.3 1011.4 0.0
20/06:00pm 24.7 18.8 7.4 33 9.2 SSE 28 48 15 26 1011.6 1010.7 0.0
20/05:52pm 25.0 19.0 7.2 32 9.5 SSE 28 46 15 25 1011.4 1010.5 0.0
20/05:30pm 25.3 19.8 7.4 32 9.6 SSE 26 44 14 24 1011.0 1010.1 0.0
20/05:00pm 25.8 20.9 8.3 33 9.5 SSE 24 41 13 22 1010.8 1009.9 0.0
20/04:37pm 26.6 21.1 9.0 33 9.7 S 28 50 15 27 1010.5 1009.6 0.0
20/04:30pm 26.8 22.5 9.2 33 9.8 SSE 22 41 12 22 1010.5 1009.6 0.0
20/04:07pm 26.8 21.6 10.1 35 9.4 S 28 46 15 25 1010.1 1009.2 0.0
20/04:00pm 26.9 22.3 11.0 37 9.1 S 26 44 14 24 1010.1 1009.2 0.0
20/03:30pm 27.2 22.8 12.8 41 8.5 SSE 28 48 15 26 1009.9 1009.0 0.0
20/03:00pm 26.8 22.6 13.5 44 7.9 SSE 28 50 15 27 1009.8 1008.9 0.0
20/02:57pm 27.2 23.2 14.2 44 7.9 SSE 28 50 15 27 1009.8 1008.9 0.0
20/02:30pm 27.0 23.6 14.7 47 7.5 S 26 46 14 25 1009.6 1008.7 0.0
20/02:26pm 27.8 24.3 15.5 47 7.6 S 28 46 15 25 1009.5 1008.6 0.0
20/02:00pm 28.8 25.5 15.0 43 8.5 S 26 41 14 22 1009.1 1008.2 0.0
20/01:30pm 29.0 26.2 14.4 41 8.9 SW 22 43 12 23 1008.7 1007.7 0.0
20/01:00pm 29.0 26.1 14.0 39 9.1 SW 22 37 12 20 1008.6 1007.6 0.0
20/12:30pm 29.6 27.0 13.8 38 9.6 SW 20 33 11 18 1008.7 1007.7 0.0
20/12:00pm 28.8 26.3 13.5 39 9.2 SW 19 33 10 18 1008.9 1007.9 0.0
20/11:30am 27.7 25.6 13.6 42 8.5 WSW 17 33 9 18 1009.0 1008.0 0.0
20/11:00am 28.0 25.4 13.1 39 8.9 WSW 19 32 10 17 1008.7 1007.7 0.0
20/10:30am 27.3 25.6 13.6 43 8.2 WSW 15 26 8 14 1008.9 1007.9 0.0
20/10:00am 27.2 26.1 14.2 44 7.9 WSW 13 26 7 14 1008.7 1007.7 0.0
20/09:30am 27.1 26.6 14.8 47 7.5 WSW 11 19 6 10 1008.7 1007.7 0.0
20/09:00am 26.1 26.0 13.9 47 7.3 SW 7 15 4 8 1008.8 1007.8 0.4
20/08:30am 25.0 24.7 12.6 46 7.2 SW 6 13 3 7 1008.8 1007.8 0.4
20/08:00am 23.7 23.2 12.0 48 6.7 SSW 6 9 3 5 1008.7 1007.7 0.2
20/07:30am 22.0 20.7 11.1 50 6.1 SSE 9 13 5 7 1008.7 1007.7 0.2
20/07:00am 21.3 19.2 11.3 53 5.6 S 13 15 7 8 1008.7 1007.7 0.2
20/06:30am 20.5 18.5 11.4 56 5.1 SE 13 17 7 9 1008.5 1007.5 0.2
20/06:00am 19.4 17.1 11.9 62 4.2 SE 15 17 8 9 1008.4 1007.4 0.2
20/05:30am 19.2 16.3 11.0 59 4.5 SE 17 20 9 11 1008.3 1007.3 0.2
20/05:00am 19.3 16.8 11.1 59 4.5 SSE 15 17 8 9 1008.3 1007.3 0.2
20/04:30am 19.7 17.2 11.2 58 4.7 SE 15 17 8 9 1007.9 1006.9 0.2
20/04:00am 20.5 17.5 10.6 53 5.5 ESE 17 26 9 14 1007.5 1006.6 0.2
20/03:30am 21.1 18.0 10.3 50 5.9 SE 17 28 9 15 1007.6 1006.7 0.2
20/03:00am 21.1 18.3 11.2 53 5.5 SE 17 20 9 11 1008.0 1007.0 0.2
20/02:30am 21.4 18.8 12.0 55 5.3 SE 17 24 9 13 1008.0 1007.0 0.2
20/02:00am 21.4 18.7 11.7 54 5.5 SE 17 26 9 14 1008.1 1007.1 0.2
20/01:30am 21.6 19.0 11.9 54 5.5 ESE 17 26 9 14 1008.5 1007.5 0.2
20/01:00am 22.0 19.2 11.4 51 6.0 ESE 17 26 9 14 1008.8 1007.8 0.2
20/12:30am 22.7 19.7 10.8 47 6.7 SE 17 26 9 14 1009.1 1008.2 0.2
20/12:00am 23.3 19.9 10.7 45 7.1 SE 19 30 10 16 1009.2 1008.3 0.2
 
Date/Time
WST
Temp
°C
App
Temp
°C
Dew
Point
Rel
Hum
%
Delta-T
°C
Wind Press
QNH
hPa
Press
MSL
hPa
Rain
since 9 am
mm
Dir
 
Spd
km/h
Gust
km/h
Spd
kts
Gust
kts
19/11:30pm 23.3 19.7 11.7 48 6.6 SE 22 37 12 20 1009.6 1008.7 0.2
19/11:00pm 24.0 20.5 12.3 48 6.8 SE 22 37 12 20 1009.5 1008.6 0.2
19/10:30pm 23.7 21.4 14.7 57 5.4 SE 20 33 11 18 1009.9 1009.0 0.2
19/10:00pm 27.4 24.4 10.6 35 9.6 S 17 26 9 14 1010.1 1009.2 0.0
19/09:30pm 27.1 23.1 10.3 35 9.5 S 22 35 12 19 1009.4 1008.5 0.0
19/09:00pm 27.4 23.2 9.7 33 10.0 S 22 35 12 19 1009.2 1008.3 0.0
19/08:30pm 27.6 24.0 9.9 33 10.0 SSW 19 28 10 15 1009.1 1008.2 0.0
19/08:00pm 27.9 24.0 8.7 30 10.7 SW 19 28 10 15 1008.7 1007.7 0.0
19/07:30pm 28.9 24.4 6.9 25 11.9 SSW 20 33 11 18 1008.4 1007.4 0.0
19/07:00pm 30.0 24.7 3.1 18 13.7 SW 20 32 11 17 1008.3 1007.3 0.0
19/06:30pm 32.3 26.7 3.3 16 15.0 SW 22 35 12 19 1008.2 1007.2 0.0
19/06:00pm 33.4 27.9 4.2 16 15.5 SW 22 37 12 20 1007.9 1006.9 0.0
19/05:30pm 35.2 31.0 5.6 16 16.2 SW 17 28 9 15 1007.6 1006.7 0.0
19/05:00pm 37.1 33.7 4.1 13 17.8 SSW 11 15 6 8 1007.9 1006.9 0.0
19/04:30pm 36.7 34.2 4.9 14 17.3 NNE 7 15 4 8 1008.4 1007.4 0.0
19/04:00pm 36.2 32.9 4.5 14 17.2 SE 11 17 6 9 1008.9 1007.9 0.0
19/03:30pm 37.1 34.3 5.2 14 17.5 E 9 17 5 9 1009.2 1008.3 0.0
19/03:00pm 37.2 34.0 5.3 14 17.6 N 11 19 6 10 1009.8 1008.9 0.0
19/02:30pm 36.2 33.3 6.4 16 16.6 ENE 11 24 6 13 1010.2 1009.3 0.0
19/02:00pm 35.9 33.1 5.2 15 16.8 ENE 9 17 5 9 1010.6 1009.7 0.0
19/01:30pm 36.2 34.0 5.5 15 16.8 SSW 6 17 3 9 1011.1 1010.2 0.0
19/01:00pm 36.2 33.1 5.5 15 16.9 ESE 11 19 6 10 1011.5 1010.6 0.0
19/12:30pm 35.3 32.8 6.6 17 15.9 S 9 19 5 10 1012.1 1011.1 0.0
19/12:00pm 34.5 31.6 8.3 20 14.9 SE 13 26 7 14 1012.7 1011.8 0.0
19/11:30am 33.2 30.8 8.6 22 14.0 SE 11 20 6 11 1013.3 1012.4 0.0
19/11:00am 31.8 29.0 8.7 24 13.0 E 13 22 7 12 1013.8 1012.9 0.0
19/10:30am 30.3 27.7 9.2 27 11.9 ESE 13 32 7 17 1014.3 1013.4 0.0
19/10:00am 29.1 26.4 10.3 31 10.8 E 15 28 8 15 1014.8 1013.9 0.0
19/09:30am 26.6 23.2 9.0 33 9.7 E 17 30 9 16 1015.1 1014.2 0.0
19/09:00am 25.0 22.4 9.3 37 8.7 E 13 32 7 17 1015.7 1014.8 0.0
19/08:30am 23.1 19.5 9.8 43 7.3 E 19 30 10 16 1016.0 1015.1 0.0
19/08:00am 21.7 18.4 9.6 46 6.6 ESE 17 28 9 15 1016.2 1015.3 0.0
19/07:30am 19.1 15.9 10.1 56 4.9 ESE 17 26 9 14 1016.3 1015.4 0.0
19/07:00am 17.3 13.6 9.5 60 4.1 SE 19 30 10 16 1016.3 1015.4 0.0
19/06:30am 16.1 12.3 9.1 63 3.7 SE 19 26 10 14 1016.3 1015.4 0.0
19/06:00am 15.3 11.5 9.0 66 3.3 SE 19 28 10 15 1016.3 1015.4 0.0
19/05:30am 14.5 10.7 8.9 69 2.9 SE 19 26 10 14 1016.1 1015.2 0.0
19/05:00am 14.5 10.5 8.9 69 2.9 SE 20 26 11 14 1016.1 1015.2 0.0

Other Formats:

Comma delimited format used in spreadsheet applications
http://www.bom.gov.au/fwo/IDW60801/IDW60801.94620.axf

JavaScript Object Notation format (JSON) in row-major order
http://www.bom.gov.au/fwo/IDW60801/IDW60801.94620.json